Time;durP1;ratioP1;P1;durP2;ratioP2;P2;SDS_P1;SDS_P2;PMS_P1;PMS_P2;Temp;Humidity;BMP_temperature;BMP_pressure;BME280_temperature;BME280_humidity;BME280_pressure;Samples;Min_cycle;Max_cycle;Signal;HPM_P1;HPM_P2
2022/10/29 00:01:22;;;;;;;55.38;23.23;;;19.90;77.40;;;;;;7371259;19;20026;-78
2022/10/29 00:03:51;;;;;;;42.90;18.10;;;20.00;77.50;;;;;;7372482;19;20022;-78
2022/10/29 00:06:20;;;;;;;43.65;19.35;;;19.90;77.30;;;;;;7376592;19;20375;-78
2022/10/29 00:08:48;;;;;;;37.00;18.27;;;20.00;77.70;;;;;;7374736;19;20097;-78
2022/10/29 00:11:20;;;;;;;41.17;18.52;;;20.00;78.60;;;;;;7378941;19;20078;-78
2022/10/29 00:13:50;;;;;;;48.45;20.85;;;20.00;78.00;;;;;;7389301;19;20053;-78
2022/10/29 00:16:23;;;;;;;36.75;15.90;;;20.00;77.70;;;;;;7373096;19;20622;-78
2022/10/29 00:18:52;;;;;;;43.08;15.07;;;19.90;77.90;;;;;;7371471;19;20014;-78
2022/10/29 00:21:23;;;;;;;34.05;14.10;;;20.00;78.20;;;;;;7371730;19;20014;-78
2022/10/29 00:23:53;;;;;;;25.40;12.43;;;20.00;78.30;;;;;;7370449;19;20122;-78
2022/10/29 00:26:23;;;;;;;30.63;12.30;;;20.00;78.60;;;;;;7372151;19;20097;-78
2022/10/29 00:28:54;;;;;;;32.95;12.32;;;20.00;78.80;;;;;;7391662;19;20018;-78
2022/10/29 00:31:26;;;;;;;31.30;12.65;;;20.00;78.90;;;;;;7369152;19;20015;-78
2022/10/29 00:33:56;;;;;;;25.83;11.90;;;20.10;80.00;;;;;;7368678;19;20089;-78
2022/10/29 00:36:27;;;;;;;37.40;12.30;;;20.10;79.20;;;;;;7372583;19;20082;-78
2022/10/29 00:38:56;;;;;;;40.42;14.50;;;20.10;80.00;;;;;;7371548;19;20429;-78
2022/10/29 00:41:28;;;;;;;33.58;15.20;;;20.10;79.10;;;;;;7369127;19;20090;-78
2022/10/29 00:44:29;;;;;;;33.40;14.48;;;20.10;79.20;;;;;;7368388;19;20520;-77
2022/10/29 00:47:12;;;;;;;36.67;16.55;;;20.10;79.40;;;;;;7370573;19;20022;-78
2022/10/29 00:49:43;;;;;;;37.10;19.52;;;20.10;79.20;;;;;;7392721;19;20024;-78
2022/10/29 00:52:13;;;;;;;39.28;18.35;;;20.10;79.10;;;;;;7371096;19;20066;-78
2022/10/29 00:54:44;;;;;;;42.33;19.52;;;20.10;79.10;;;;;;7369649;19;20163;-78
2022/10/29 00:57:16;;;;;;;30.17;17.08;;;20.10;79.10;;;;;;7370473;19;20089;-78
2022/10/29 00:59:46;;;;;;;47.20;19.33;;;20.20;79.10;;;;;;7369244;19;20043;-78
2022/10/29 01:02:18;;;;;;;50.28;23.67;;;20.10;79.00;;;;;;7369573;19;20071;-77
2022/10/29 01:04:47;;;;;;;53.17;23.70;;;20.20;79.10;;;;;;7394003;19;20026;-78
2022/10/29 01:07:16;;;;;;;48.80;20.63;;;20.10;79.10;;;;;;7370916;19;20378;-77
2022/10/29 01:09:45;;;;;;;46.60;16.83;;;20.10;79.10;;;;;;7369118;19;20014;-78
2022/10/29 01:12:38;;;;;;;43.47;20.90;;;20.20;79.20;;;;;;7371157;19;20014;-78
2022/10/29 01:15:14;;;;;;;53.33;21.35;;;20.10;79.40;;;;;;7368006;19;20566;-78
2022/10/29 01:17:57;;;;;;;39.08;14.82;;;20.10;79.10;;;;;;7368504;19;20613;-78
2022/10/29 01:20:44;;;;;;;29.25;13.20;;;20.10;79.10;;;;;;7369902;19;20051;-78
2022/10/29 01:23:29;;;;;;;33.25;11.63;;;20.10;79.10;;;;;;7368526;19;20594;-77
2022/10/29 01:26:31;;;;;;;33.20;11.30;;;20.10;79.00;;;;;;7370021;19;20015;-77
2022/10/29 01:29:18;;;;;;;28.80;11.52;;;20.10;79.20;;;;;;7356844;19;20024;-78
2022/10/29 01:31:54;;;;;;;34.75;11.75;;;20.10;79.00;;;;;;7378005;19;20800;-78
2022/10/29 01:34:29;;;;;;;25.80;10.85;;;20.10;79.00;;;;;;7361348;19;20103;-78
2022/10/29 01:37:02;;;;;;;29.45;11.50;;;20.10;78.90;;;;;;7361180;19;20410;-78
2022/10/29 01:39:37;;;;;;;26.48;11.93;;;20.10;78.90;;;;;;7363134;19;20119;-78
2022/10/29 01:42:18;;;;;;;34.08;11.75;;;20.10;78.90;;;;;;7364245;19;20360;-78
2022/10/29 01:44:52;;;;;;;31.23;12.30;;;20.10;78.90;;;;;;7360199;19;20078;-78
2022/10/29 01:47:28;;;;;;;28.83;12.38;;;20.10;79.00;;;;;;7362285;19;20014;-78
2022/10/29 01:50:01;;;;;;;34.38;11.23;;;20.10;79.00;;;;;;7364956;19;20355;-77
2022/10/29 01:52:34;;;;;;;29.48;11.88;;;20.10;78.90;;;;;;7383865;19;20101;-78
2022/10/29 01:55:04;;;;;;;35.53;11.88;;;20.10;78.80;;;;;;7365918;19;20122;-78
2022/10/29 01:57:34;;;;;;;24.38;10.75;;;20.10;78.80;;;;;;7360870;19;20093;-78
2022/10/29 02:00:07;;;;;;;31.47;11.07;;;20.10;78.90;;;;;;7364166;19;20011;-78
2022/10/29 02:02:48;;;;;;;24.27;10.82;;;20.10;78.90;;;;;;7364856;19;20078;-78
2022/10/29 02:05:27;;;;;;;19.70;10.43;;;20.00;78.80;;;;;;7361709;19;20028;-78
2022/10/29 02:08:00;;;;;;;28.85;11.23;;;20.10;78.70;;;;;;7364214;19;20018;-77
2022/10/29 02:10:35;;;;;;;27.80;10.45;;;20.10;79.40;;;;;;7388863;19;20335;-78
2022/10/29 02:13:03;;;;;;;29.95;10.95;;;20.00;78.60;;;;;;7362411;19;20018;-78
2022/10/29 02:15:37;;;;;;;38.60;11.18;;;20.10;78.60;;;;;;7362791;19;20094;-79
2022/10/29 02:18:09;;;;;;;32.67;11.95;;;20.00;78.60;;;;;;7363478;19;20014;-79
2022/10/29 02:20:43;;;;;;;35.33;12.27;;;20.00;78.50;;;;;;7365443;19;20021;-79
2022/10/29 02:23:12;;;;;;;24.40;10.90;;;20.00;78.50;;;;;;7364303;19;20082;-79
2022/10/29 02:25:41;;;;;;;40.75;12.18;;;20.10;79.20;;;;;;7383380;19;20014;-78
2022/10/29 02:28:09;;;;;;;28.80;11.55;;;20.00;78.30;;;;;;7361890;19;22377;-78
2022/10/29 02:30:42;;;;;;;28.48;11.75;;;20.10;78.40;;;;;;7372146;19;20022;-78
2022/10/29 02:33:13;;;;;;;28.98;11.70;;;20.10;78.30;;;;;;7374132;19;20039;-79
2022/10/29 02:35:42;;;;;;;29.92;11.25;;;20.10;78.30;;;;;;7371833;19;20035;-79
2022/10/29 02:38:10;;;;;;;31.92;11.45;;;20.10;78.30;;;;;;7364985;19;20019;-78
2022/10/29 02:40:39;;;;;;;32.22;12.00;;;20.10;78.30;;;;;;7387930;19;20522;-78
2022/10/29 02:43:10;;;;;;;24.42;10.93;;;20.10;78.30;;;;;;7367917;19;20021;-78
2022/10/29 02:45:39;;;;;;;31.50;11.48;;;20.10;78.20;;;;;;7368144;19;20014;-78
2022/10/29 02:48:08;;;;;;;28.40;11.52;;;20.10;78.20;;;;;;7366925;19;20122;-78
2022/10/29 02:50:39;;;;;;;31.73;11.48;;;20.10;78.20;;;;;;7368372;19;20552;-78
2022/10/29 02:53:08;;;;;;;30.60;11.95;;;20.10;78.20;;;;;;7365980;19;20026;-78
2022/10/29 02:55:37;;;;;;;32.28;10.88;;;20.10;78.10;;;;;;7392078;19;20022;-78
2022/10/29 02:58:05;;;;;;;25.65;11.50;;;20.10;78.10;;;;;;7406110;19;20035;-78
2022/10/29 03:00:34;;;;;;;31.55;10.55;;;20.10;78.10;;;;;;7381457;19;20418;-79
2022/10/29 03:03:03;;;;;;;31.30;10.60;;;20.00;78.00;;;;;;7374219;19;20070;-78
2022/10/29 03:05:31;;;;;;;32.72;10.52;;;20.10;78.20;;;;;;7374395;19;20216;-78
2022/10/29 03:08:03;;;;;;;33.15;10.63;;;20.00;78.00;;;;;;7374503;19;20672;-79
2022/10/29 03:10:31;;;;;;;22.00;10.45;;;20.00;78.10;;;;;;7395954;19;20025;-78
2022/10/29 03:13:00;;;;;;;30.00;10.40;;;20.00;78.10;;;;;;7369020;19;20525;-78
2022/10/29 03:15:29;;;;;;;30.35;10.63;;;20.00;78.20;;;;;;7370568;19;20023;-79
2022/10/29 03:17:58;;;;;;;29.98;10.10;;;20.00;78.10;;;;;;7375328;19;20023;-79
2022/10/29 03:20:26;;;;;;;39.28;11.20;;;20.00;78.00;;;;;;7375389;19;20007;-78
2022/10/29 03:22:55;;;;;;;33.08;10.73;;;19.90;77.90;;;;;;7372448;19;20113;-78
2022/10/29 03:25:26;;;;;;;30.83;10.63;;;19.90;77.90;;;;;;7394565;19;20019;-79
2022/10/29 03:27:55;;;;;;;26.85;9.98;;;19.90;77.90;;;;;;7371680;19;20446;-79
2022/10/29 03:30:24;;;;;;;30.00;10.32;;;19.90;77.90;;;;;;7372433;19;20007;-79
2022/10/29 03:32:52;;;;;;;35.33;10.48;;;19.90;77.80;;;;;;7370305;19;20019;-79
2022/10/29 03:35:21;;;;;;;24.52;9.90;;;19.90;77.80;;;;;;7374949;19;20050;-78
2022/10/29 03:37:52;;;;;;;24.75;10.13;;;19.90;77.90;;;;;;7392175;19;20022;-78
2022/10/29 03:40:21;;;;;;;30.60;10.27;;;19.90;77.80;;;;;;7376791;19;20442;-78
2022/10/29 03:42:52;;;;;;;37.17;10.00;;;19.90;77.80;;;;;;7369770;19;20519;-78
2022/10/29 03:45:21;;;;;;;29.80;9.98;;;19.90;77.70;;;;;;7371143;19;20573;-78
2022/10/29 03:47:50;;;;;;;33.85;10.60;;;19.90;77.70;;;;;;7373593;19;20176;-78
2022/10/29 03:50:18;;;;;;;26.30;9.63;;;19.90;77.70;;;;;;7371787;19;20018;-78
2022/10/29 03:52:47;;;;;;;32.10;10.40;;;19.90;77.60;;;;;;7393138;19;20025;-78
2022/10/29 03:55:16;;;;;;;25.50;10.35;;;19.90;77.60;;;;;;7370221;19;20531;-79
2022/10/29 03:57:44;;;;;;;32.70;9.88;;;19.90;77.60;;;;;;7370275;19;20566;-79
2022/10/29 04:00:17;;;;;;;33.33;9.25;;;19.90;77.60;;;;;;7368204;19;20014;-78
2022/10/29 04:02:46;;;;;;;25.58;9.38;;;19.80;77.50;;;;;;7371089;19;20011;-78
2022/10/29 04:05:14;;;;;;;28.38;9.80;;;19.80;77.40;;;;;;7370534;19;20074;-78
2022/10/29 04:07:43;;;;;;;27.30;10.00;;;19.80;77.50;;;;;;7388834;19;20094;-78
2022/10/29 04:10:12;;;;;;;24.67;9.48;;;19.80;77.50;;;;;;7370684;19;20018;-78
2022/10/29 04:12:40;;;;;;;21.02;9.25;;;19.80;77.50;;;;;;7371798;19;20082;-78
2022/10/29 04:15:10;;;;;;;25.55;9.60;;;19.80;77.50;;;;;;7370507;19;20443;-78
2022/10/29 04:17:41;;;;;;;35.92;9.50;;;19.80;77.50;;;;;;7369723;19;20015;-78
2022/10/29 04:20:11;;;;;;;34.33;9.05;;;19.80;77.40;;;;;;7372952;19;20025;-78
2022/10/29 04:22:40;;;;;;;30.98;9.57;;;19.80;77.50;;;;;;7391337;19;20022;-79
2022/10/29 04:25:10;;;;;;;23.33;9.43;;;19.80;78.20;;;;;;7366858;19;20334;-79
2022/10/29 04:27:39;;;;;;;25.95;10.32;;;19.80;77.50;;;;;;7371811;19;20020;-79
2022/10/29 04:30:09;;;;;;;26.27;9.68;;;19.70;77.40;;;;;;7369197;19;20015;-78
2022/10/29 04:32:41;;;;;;;32.23;9.20;;;19.80;77.50;;;;;;7369873;19;20418;-78
2022/10/29 04:35:09;;;;;;;;;;;19.70;77.30;;;;;;7370214;19;20011;-78
2022/10/29 04:37:38;;;;;;;27.38;9.50;;;19.80;77.30;;;;;;7391056;19;19926;-79
2022/10/29 04:40:08;;;;;;;25.02;9.00;;;19.80;77.10;;;;;;7375548;19;20017;-79
2022/10/29 04:42:38;;;;;;;24.65;8.80;;;19.70;77.00;;;;;;7371676;19;20082;-78
2022/10/29 04:45:08;;;;;;;24.45;9.02;;;19.70;77.10;;;;;;7367092;19;20043;-78
2022/10/29 04:47:37;;;;;;;25.20;9.25;;;19.70;77.10;;;;;;7369395;19;20022;-78
2022/10/29 04:50:08;;;;;;;22.80;8.55;;;19.70;77.80;;;;;;7375927;19;20016;-78
2022/10/29 04:52:37;;;;;;;19.80;8.02;;;19.70;76.90;;;;;;7392999;19;20082;-78
2022/10/29 04:55:06;;;;;;;25.15;9.00;;;19.70;77.00;;;;;;7372072;19;20621;-78
2022/10/29 04:57:35;;;;;;;26.08;8.80;;;19.70;77.00;;;;;;7368467;19;20022;-78
2022/10/29 05:00:04;;;;;;;25.13;9.05;;;19.70;77.00;;;;;;7369882;19;20094;-78
2022/10/29 05:02:36;;;;;;;22.20;8.68;;;19.70;77.10;;;;;;7371796;19;20022;-78
2022/10/29 05:05:04;;;;;;;21.55;9.23;;;19.70;77.00;;;;;;7367955;19;20043;-78
2022/10/29 05:07:36;;;;;;;21.65;8.57;;;19.70;77.00;;;;;;7391457;19;20014;-78
2022/10/29 05:10:05;;;;;;;23.52;9.10;;;19.70;77.20;;;;;;7369108;19;20484;-78
2022/10/29 05:12:34;;;;;;;21.23;8.60;;;19.70;77.30;;;;;;7366444;19;20078;-78
2022/10/29 05:15:02;;;;;;;33.80;8.73;;;19.70;77.20;;;;;;7363796;19;20701;-78
2022/10/29 05:17:31;;;;;;;27.58;8.70;;;19.70;77.30;;;;;;7369205;19;20302;-79
2022/10/29 05:20:00;;;;;;;22.45;8.90;;;19.70;77.20;;;;;;7369860;19;20014;-78
2022/10/29 05:22:28;;;;;;;40.03;9.13;;;19.60;77.20;;;;;;7387937;19;20026;-79
2022/10/29 05:24:59;;;;;;;24.63;9.68;;;19.60;77.20;;;;;;7367144;19;20011;-78
2022/10/29 05:27:29;;;;;;;27.00;9.15;;;19.60;77.30;;;;;;7368297;19;20091;-78
2022/10/29 05:29:57;;;;;;;32.72;8.88;;;19.60;77.20;;;;;;7367685;19;20011;-78
2022/10/29 05:32:26;;;;;;;32.60;8.45;;;19.60;77.30;;;;;;7366602;19;20023;-78
2022/10/29 05:34:55;;;;;;;28.27;9.05;;;19.50;77.10;;;;;;7373230;19;20122;-78
2022/10/29 05:37:24;;;;;;;22.75;8.50;;;19.50;77.20;;;;;;7390405;19;20029;-79
2022/10/29 05:39:53;;;;;;;23.88;8.00;;;19.50;77.20;;;;;;7369542;19;20050;-79
2022/10/29 05:42:24;;;;;;;22.80;8.75;;;19.50;77.10;;;;;;7364253;19;20618;-78
2022/10/29 05:44:53;;;;;;;24.35;8.52;;;19.50;77.10;;;;;;7363393;19;20018;-78
2022/10/29 05:47:21;;;;;;;33.25;8.98;;;19.50;77.10;;;;;;7362750;19;20010;-78
2022/10/29 05:49:50;;;;;;;26.42;8.90;;;19.50;77.10;;;;;;7386996;19;20023;-78
2022/10/29 05:52:19;;;;;;;25.05;8.07;;;19.50;77.00;;;;;;7367136;19;20019;-78
2022/10/29 05:54:47;;;;;;;28.88;8.93;;;19.50;76.90;;;;;;7366497;19;20032;-79
2022/10/29 05:57:16;;;;;;;31.52;8.75;;;19.50;77.00;;;;;;7367487;19;20016;-78
2022/10/29 05:59:47;;;;;;;28.75;8.13;;;19.50;77.10;;;;;;7368197;19;20022;-79
2022/10/29 06:02:16;;;;;;;25.75;8.05;;;19.50;77.10;;;;;;7363163;19;20093;-79
2022/10/29 06:04:45;;;;;;;20.00;8.45;;;19.50;76.90;;;;;;7388179;19;20419;-78
2022/10/29 06:07:13;;;;;;;20.75;8.63;;;19.50;76.90;;;;;;7368243;19;20015;-78
2022/10/29 06:09:42;;;;;;;30.40;9.30;;;19.40;77.10;;;;;;7367848;19;20074;-77
2022/10/29 06:12:11;;;;;;;27.38;9.82;;;19.40;77.00;;;;;;7363907;19;20099;-78
2022/10/29 06:14:39;;;;;;;27.17;10.45;;;19.40;76.90;;;;;;7368560;19;20555;-78
2022/10/29 06:17:11;;;;;;;25.55;9.88;;;19.40;76.80;;;;;;7360911;19;20025;-79
2022/10/29 06:19:39;;;;;;;24.10;8.80;;;19.30;76.80;;;;;;7386169;19;20022;-78
2022/10/29 06:22:08;;;;;;;28.40;9.15;;;19.30;76.90;;;;;;7367552;19;20324;-78
2022/10/29 06:24:37;;;;;;;23.65;8.68;;;19.30;77.20;;;;;;7365974;19;20898;-78
2022/10/29 06:27:05;;;;;;;25.85;9.60;;;19.20;77.20;;;;;;7367024;19;20022;-78
2022/10/29 06:29:34;;;;;;;26.58;8.57;;;19.20;77.30;;;;;;7368898;19;20560;-78
2022/10/29 06:32:03;;;;;;;33.85;8.93;;;19.20;77.40;;;;;;7363961;19;20114;-78
2022/10/29 06:34:34;;;;;;;87.55;34.05;;;19.20;77.50;;;;;;7389322;19;20771;-78
2022/10/29 06:37:03;;;;;;;108.75;41.65;;;19.20;78.20;;;;;;7364248;19;20082;-78
2022/10/29 06:39:31;;;;;;;69.53;31.98;;;19.20;77.40;;;;;;7366369;19;20015;-78
2022/10/29 06:42:00;;;;;;;53.40;24.40;;;19.20;77.40;;;;;;7368330;19;20015;-78
2022/10/29 06:44:29;;;;;;;53.47;20.90;;;19.20;77.30;;;;;;7368282;19;20025;-78
2022/10/29 06:46:57;;;;;;;41.63;14.85;;;19.20;77.20;;;;;;7374834;19;20171;-78
2022/10/29 06:49:26;;;;;;;33.78;13.32;;;19.20;78.10;;;;;;7418578;19;20476;-78
2022/10/29 06:51:57;;;;;;;34.00;12.02;;;19.20;77.40;;;;;;7375277;19;20141;-78
2022/10/29 06:54:26;;;;;;;26.10;10.73;;;19.10;77.30;;;;;;7369764;19;20014;-78
2022/10/29 06:56:55;;;;;;;32.80;9.63;;;19.20;77.40;;;;;;7367705;19;20116;-78
2022/10/29 06:59:24;;;;;;;21.33;8.70;;;19.20;77.40;;;;;;7365362;19;20010;-78
2022/10/29 07:01:52;;;;;;;28.58;8.35;;;19.20;77.40;;;;;;7389818;19;20018;-78
2022/10/29 07:04:21;;;;;;;26.60;8.77;;;19.20;77.30;;;;;;7372239;19;20094;-79
2022/10/29 07:06:50;;;;;;;27.35;8.65;;;19.20;77.20;;;;;;7375468;19;20019;-79
2022/10/29 07:09:21;;;;;;;25.65;8.93;;;19.20;77.40;;;;;;7370613;19;20098;-78
2022/10/29 07:11:50;;;;;;;36.90;12.10;;;19.20;77.10;;;;;;7367129;19;20120;-79
2022/10/29 07:14:18;;;;;;;31.20;13.38;;;19.20;76.90;;;;;;7365301;19;20029;-79
2022/10/29 07:16:47;;;;;;;32.22;12.07;;;19.20;76.90;;;;;;7385093;19;20094;-79
2022/10/29 07:19:16;;;;;;;41.80;17.00;;;19.20;76.90;;;;;;7365637;19;20087;-79
2022/10/29 07:21:45;;;;;;;43.38;18.10;;;19.20;76.90;;;;;;7365644;19;20081;-79
2022/10/29 07:24:16;;;;;;;48.95;21.58;;;19.20;76.70;;;;;;7366257;19;20595;-79
2022/10/29 07:26:47;;;;;;;27.23;13.48;;;19.30;76.80;;;;;;7365185;19;20010;-78
2022/10/29 07:29:16;;;;;;;37.30;12.57;;;19.20;76.60;;;;;;7364364;19;20410;-78
2022/10/29 07:31:45;;;;;;;32.92;13.35;;;19.30;76.80;;;;;;7388089;19;20057;-78
2022/10/29 07:34:14;;;;;;;29.42;11.07;;;19.30;76.90;;;;;;7364940;19;20022;-78
2022/10/29 07:36:42;;;;;;;30.38;13.15;;;19.30;76.90;;;;;;7364128;19;20015;-79
2022/10/29 07:39:11;;;;;;;31.77;13.75;;;19.30;76.80;;;;;;7362584;19;20039;-78
2022/10/29 07:41:40;;;;;;;25.17;11.82;;;19.40;76.80;;;;;;7366648;19;20083;-78
2022/10/29 07:44:11;;;;;;;25.83;10.13;;;19.40;76.60;;;;;;7373898;19;20532;-78
2022/10/29 07:46:40;;;;;;;26.38;10.18;;;19.40;76.60;;;;;;7393984;19;20109;-79
2022/10/29 07:49:08;;;;;;;29.75;9.88;;;19.40;76.60;;;;;;7369136;19;20010;-79
2022/10/29 07:51:37;;;;;;;29.55;10.27;;;19.50;76.60;;;;;;7370935;19;20020;-79
2022/10/29 07:54:06;;;;;;;22.35;9.50;;;19.50;76.70;;;;;;7373713;19;20037;-79
2022/10/29 07:56:35;;;;;;;33.65;9.63;;;19.50;76.70;;;;;;7373824;19;20082;-79
2022/10/29 07:59:04;;;;;;;24.60;9.07;;;19.60;76.80;;;;;;7372395;19;20513;-79
2022/10/29 08:01:35;;;;;;;22.92;8.77;;;19.60;76.70;;;;;;7392116;19;20014;-79
2022/10/29 08:04:03;;;;;;;29.17;8.27;;;19.70;76.70;;;;;;7368725;19;20074;-78
2022/10/29 08:06:32;;;;;;;20.52;8.00;;;19.70;76.20;;;;;;7372136;19;20500;-79
2022/10/29 08:09:01;;;;;;;24.38;9.68;;;19.80;76.30;;;;;;7369406;19;20018;-79
2022/10/29 08:11:29;;;;;;;26.45;9.07;;;19.80;76.10;;;;;;7370046;19;20517;-79
2022/10/29 08:13:58;;;;;;;25.58;8.35;;;19.90;76.10;;;;;;7372349;19;20487;-78
2022/10/29 08:16:27;;;;;;;33.80;9.32;;;19.90;76.90;;;;;;7393641;19;20026;-79
2022/10/29 08:18:58;;;;;;;24.90;9.38;;;20.00;76.10;;;;;;7371413;19;20584;-79
2022/10/29 08:21:27;;;;;;;;;;;20.00;76.00;;;;;;7373121;19;20014;-79
2022/10/29 08:23:56;;;;;;;27.70;8.60;;;20.10;75.90;;;;;;7374044;19;19926;-79
2022/10/29 08:26:24;;;;;;;21.33;8.77;;;20.20;75.50;;;;;;7366873;19;20014;-78
2022/10/29 08:28:53;;;;;;;25.35;8.45;;;20.10;75.40;;;;;;7387140;19;20021;-79
2022/10/29 08:31:22;;;;;;;26.85;9.02;;;20.20;75.40;;;;;;7371751;19;20014;-79
2022/10/29 08:33:50;;;;;;;19.33;8.15;;;20.10;75.20;;;;;;7371435;19;20029;-79
2022/10/29 08:36:21;;;;;;;25.52;8.88;;;20.10;75.10;;;;;;7371441;19;20016;-79
2022/10/29 08:38:50;;;;;;;30.92;8.13;;;20.10;75.10;;;;;;7370362;19;20121;-79
2022/10/29 08:41:35;;;;;;;29.02;8.07;;;20.20;75.00;;;;;;7373700;19;20014;-79
2022/10/29 08:44:35;;;;;;;24.13;7.30;;;20.20;75.10;;;;;;7371042;19;20018;-78
2022/10/29 08:47:11;;;;;;;30.13;7.63;;;20.20;74.90;;;;;;7363472;19;20033;-78
2022/10/29 08:49:47;;;;;;;27.00;9.38;;;20.20;74.80;;;;;;7389462;19;20018;-79
2022/10/29 08:52:23;;;;;;;25.27;8.80;;;20.20;74.90;;;;;;7367955;19;20014;-79
2022/10/29 08:55:01;;;;;;;22.15;7.78;;;20.20;75.40;;;;;;7363326;19;20022;-79
2022/10/29 08:57:36;;;;;;;25.80;8.75;;;20.30;75.70;;;;;;7367512;19;20011;-79
2022/10/29 09:00:12;;;;;;;27.90;7.75;;;20.30;75.70;;;;;;7366936;19;20434;-79
2022/10/29 09:02:41;;;;;;;30.10;7.78;;;20.40;75.50;;;;;;7366627;19;20073;-79
2022/10/29 09:05:15;;;;;;;25.58;7.72;;;20.40;75.40;;;;;;7364648;19;20022;-79
2022/10/29 09:08:04;;;;;;;22.30;7.15;;;20.40;75.30;;;;;;7389119;19;20007;-78
2022/10/29 09:10:42;;;;;;;22.88;7.50;;;20.50;75.20;;;;;;7370686;19;20021;-79
2022/10/29 09:13:34;;;;;;;25.45;7.70;;;20.60;74.90;;;;;;7378012;19;20036;-79
2022/10/29 09:16:14;;;;;;;23.65;6.85;;;20.60;74.50;;;;;;7367283;19;20025;-80
2022/10/29 09:18:54;;;;;;;27.30;8.32;;;20.70;74.20;;;;;;7365556;19;20508;-80
2022/10/29 09:21:32;;;;;;;23.55;6.78;;;20.70;74.00;;;;;;7373423;19;20020;-79
2022/10/29 09:24:13;;;;;;;28.70;8.00;;;20.80;73.70;;;;;;7379551;19;20022;-79
2022/10/29 09:26:55;;;;;;;20.13;7.63;;;20.80;73.60;;;;;;7380705;19;20022;-79
2022/10/29 09:32:26;;;;;;;28.15;7.07;;;20.90;74.20;;;;;;7328551;19;20586;-77
2022/10/29 09:34:58;;;;;;;29.55;7.13;;;21.00;73.10;;;;;;7375514;19;20010;-78
2022/10/29 09:37:42;;;;;;;15.07;6.13;;;21.00;72.80;;;;;;7390728;19;20026;-77
2022/10/29 09:40:27;;;;;;;22.23;6.43;;;21.10;72.70;;;;;;7365749;19;20029;-78
2022/10/29 09:42:57;;;;;;;24.17;6.78;;;21.10;72.30;;;;;;7369022;19;20014;-78
2022/10/29 09:45:35;;;;;;;25.40;6.50;;;21.20;72.00;;;;;;7365978;19;20018;-78
2022/10/29 09:48:11;;;;;;;35.13;6.78;;;21.30;71.70;;;;;;7365913;19;20385;-78
2022/10/29 09:50:47;;;;;;;23.35;6.40;;;21.30;71.60;;;;;;7368078;19;20011;-78
2022/10/29 09:53:16;;;;;;;20.67;6.15;;;21.40;71.30;;;;;;7371874;19;20026;-77
2022/10/29 09:55:52;;;;;;;20.00;6.45;;;21.40;71.20;;;;;;7392882;19;20022;-77
2022/10/29 09:58:24;;;;;;;21.58;6.30;;;21.40;71.10;;;;;;7371979;19;20086;-79
2022/10/29 10:00:53;;;;;;;26.63;6.85;;;21.50;70.90;;;;;;7371384;19;20014;-78
2022/10/29 10:03:28;;;;;;;24.75;6.63;;;21.50;70.50;;;;;;7370326;19;20486;-78
2022/10/29 10:06:03;;;;;;;21.50;6.05;;;21.50;70.30;;;;;;7365910;19;20014;-77
2022/10/29 10:08:32;;;;;;;25.00;6.93;;;21.60;70.30;;;;;;7372040;19;20015;-77
2022/10/29 10:11:06;;;;;;;26.33;6.38;;;21.60;70.10;;;;;;7368120;19;20082;-77
2022/10/29 10:13:37;;;;;;;15.95;5.78;;;21.60;70.00;;;;;;7391583;19;20014;-78
2022/10/29 10:16:08;;;;;;;13.57;5.43;;;21.70;69.50;;;;;;7366100;19;20482;-77
2022/10/29 10:18:44;;;;;;;26.30;5.93;;;21.80;69.60;;;;;;7368470;19;20499;-77
2022/10/29 10:21:15;;;;;;;19.58;6.03;;;21.80;69.50;;;;;;7367778;19;20505;-78
2022/10/29 10:23:46;;;;;;;32.65;5.82;;;21.90;69.40;;;;;;7369775;19;20445;-79
2022/10/29 10:26:38;;;;;;;;;;;21.90;69.20;;;;;;7368532;19;20004;-79
2022/10/29 10:29:15;;;;;;;25.83;5.88;;;22.10;69.30;;;;;;7366183;19;20387;-78
2022/10/29 10:31:48;;;;;;;22.88;5.82;;;22.10;68.70;;;;;;7390687;19;20022;-81
2022/10/29 10:34:20;;;;;;;25.73;6.07;;;22.10;68.60;;;;;;7363626;19;20340;-80
2022/10/29 10:36:52;;;;;;;21.92;6.10;;;22.10;68.50;;;;;;7367196;19;20010;-80
2022/10/29 10:39:28;;;;;;;20.95;6.15;;;22.10;68.50;;;;;;7368876;19;20035;-79
2022/10/29 10:42:06;;;;;;;19.05;5.65;;;22.10;68.40;;;;;;7372485;19;20089;-80
2022/10/29 10:44:36;;;;;;;25.48;6.45;;;22.10;68.70;;;;;;7370601;19;20014;-82
2022/10/29 10:47:08;;;;;;;19.33;5.95;;;22.20;68.40;;;;;;7366761;19;20101;-82
2022/10/29 10:49:41;;;;;;;18.85;5.95;;;22.20;68.30;;;;;;7393847;19;20054;-80
2022/10/29 10:52:19;;;;;;;19.88;5.47;;;22.20;67.80;;;;;;7373422;19;20023;-80
2022/10/29 10:54:55;;;;;;;21.27;6.22;;;22.20;67.70;;;;;;7371547;19;20011;-80
2022/10/29 10:57:29;;;;;;;25.25;5.88;;;22.20;67.40;;;;;;7371456;19;20122;-80
2022/10/29 11:00:05;;;;;;;24.80;5.40;;;22.20;66.90;;;;;;7367247;19;20498;-77
2022/10/29 11:02:44;;;;;;;19.55;5.70;;;22.20;66.90;;;;;;7366190;19;20026;-77
2022/10/29 11:05:19;;;;;;;18.83;5.20;;;22.20;66.90;;;;;;7367044;19;20711;-78
2022/10/29 11:07:56;;;;;;;19.52;5.43;;;22.20;66.90;;;;;;7387441;19;20014;-78
2022/10/29 11:10:34;;;;;;;28.35;5.97;;;22.20;66.90;;;;;;7371061;19;20015;-77
2022/10/29 11:13:12;;;;;;;20.02;5.35;;;22.20;66.90;;;;;;7368778;19;20015;-80
2022/10/29 11:15:49;;;;;;;26.63;5.90;;;22.20;67.00;;;;;;7373340;19;20093;-78
2022/10/29 11:18:23;;;;;;;24.08;5.25;;;22.20;67.00;;;;;;7375195;19;20842;-78
2022/10/29 11:21:03;;;;;;;14.93;5.07;;;22.30;66.90;;;;;;7376004;19;20018;-79
2022/10/29 11:23:41;;;;;;;15.43;5.75;;;22.30;67.00;;;;;;7375380;19;20086;-78
2022/10/29 11:26:15;;;;;;;21.25;5.30;;;22.40;66.90;;;;;;7376059;19;20015;-76
2022/10/29 11:28:51;;;;;;;29.17;5.88;;;22.40;66.80;;;;;;7392295;19;20010;-78
2022/10/29 11:31:27;;;;;;;21.80;5.85;;;22.40;66.70;;;;;;7373250;19;20081;-78
2022/10/29 11:34:04;;;;;;;18.63;5.07;;;22.50;66.70;;;;;;7375092;19;20031;-78
2022/10/29 11:36:40;;;;;;;20.45;4.72;;;22.50;66.70;;;;;;7375671;19;20812;-78
2022/10/29 11:39:14;;;;;;;20.27;5.50;;;22.50;66.90;;;;;;7373259;19;20071;-79
2022/10/29 11:41:49;;;;;;;25.13;5.32;;;22.50;67.10;;;;;;7379059;19;20039;-79
2022/10/29 11:44:21;;;;;;;23.20;4.93;;;22.60;67.20;;;;;;7383699;19;20076;-78
2022/10/29 11:47:03;;;;;;;20.35;4.97;;;22.60;67.10;;;;;;7414416;19;20018;-79
2022/10/29 11:49:54;;;;;;;23.25;5.43;;;22.60;66.90;;;;;;7387037;19;20015;-77
2022/10/29 11:52:30;;;;;;;;;;;22.60;66.80;;;;;;7380802;19;20024;-79
2022/10/29 11:55:09;;;;;;;18.42;5.32;;;22.80;66.80;;;;;;7376230;19;20231;-79
2022/10/29 11:57:45;;;;;;;18.75;5.10;;;22.70;66.60;;;;;;7376760;19;20513;-78
2022/10/29 12:00:20;;;;;;;20.70;5.00;;;22.80;66.20;;;;;;7374748;19;20781;-79
2022/10/29 12:03:22;;;;;;;21.48;5.57;;;22.80;65.70;;;;;;7377800;19;20015;-79
2022/10/29 12:05:59;;;;;;;24.25;5.30;;;22.80;65.70;;;;;;7376582;19;20080;-80
2022/10/29 12:08:44;;;;;;;24.45;4.82;;;22.90;65.10;;;;;;7375560;19;20261;-80
2022/10/29 12:11:21;;;;;;;24.35;5.53;;;22.90;64.30;;;;;;7380336;19;20039;-81
2022/10/29 12:14:00;;;;;;;20.92;4.40;;;23.00;63.80;;;;;;7397323;19;20018;-80
2022/10/29 12:16:48;;;;;;;38.03;5.95;;;23.00;63.00;;;;;;7374937;19;20486;-81
2022/10/29 12:19:28;;;;;;;23.33;5.13;;;23.00;62.50;;;;;;7372510;19;20034;-82
2022/10/29 12:22:06;;;;;;;26.02;4.65;;;23.00;62.30;;;;;;7374398;19;20090;-80
2022/10/29 12:24:48;;;;;;;26.65;5.55;;;23.00;61.70;;;;;;7376377;19;20035;-79
2022/10/29 12:27:23;;;;;;;19.10;4.10;;;23.10;61.30;;;;;;7373179;19;20029;-80
2022/10/29 12:29:57;;;;;;;14.32;3.83;;;23.20;60.60;;;;;;7374223;19;20082;-80
2022/10/29 12:32:33;;;;;;;19.35;4.40;;;23.20;59.30;;;;;;7377136;19;20058;-80
2022/10/29 12:35:11;;;;;;;20.55;4.20;;;23.30;59.50;;;;;;7376175;19;20018;-79
2022/10/29 12:37:48;;;;;;;17.13;4.30;;;23.30;59.30;;;;;;7397297;19;20015;-79
2022/10/29 12:40:22;;;;;;;20.38;4.15;;;23.30;58.60;;;;;;7379580;19;20015;-79
2022/10/29 12:42:51;;;;;;;17.50;3.88;;;23.40;58.50;;;;;;7378696;19;20006;-80
2022/10/29 12:45:32;;;;;;;14.38;3.80;;;23.40;57.70;;;;;;7387176;19;20046;-80
2022/10/29 12:48:12;;;;;;;19.33;4.10;;;23.50;57.70;;;;;;7386575;19;20403;-79
2022/10/29 12:50:59;;;;;;;19.08;4.07;;;23.50;57.60;;;;;;7385820;19;20023;-80
2022/10/29 12:53:37;;;;;;;19.45;4.47;;;23.60;57.50;;;;;;7381997;19;20023;-80
2022/10/29 12:56:09;;;;;;;14.30;3.95;;;23.50;57.50;;;;;;7379238;19;20039;-80
2022/10/29 12:58:51;;;;;;;22.63;4.15;;;23.60;57.40;;;;;;7402837;19;20018;-80
2022/10/29 13:01:45;;;;;;;15.60;3.75;;;23.60;56.00;;;;;;7377637;19;20018;-80
2022/10/29 13:04:30;;;;;;;19.60;3.80;;;23.60;56.40;;;;;;7374566;19;20804;-80